Time;durP1;ratioP1;P1;durP2;ratioP2;P2;SDS_P1;SDS_P2;PMS_P1;PMS_P2;Temp;Humidity;BMP_temperature;BMP_pressure;BME280_temperature;BME280_humidity;BME280_pressure;Samples;Min_cycle;Max_cycle;Signal;HPM_P1;HPM_P2
2022/08/05 00:02:19;;;;;;;14.78;9.10;;;;;;;19.60;100.00;98526.45;1793542;80;21007;-72
2022/08/05 00:04:46;;;;;;;13.85;9.43;;;;;;;19.62;100.00;98518.26;1793344;80;20993;-72
2022/08/05 00:07:12;;;;;;;13.55;9.53;;;;;;;19.62;100.00;98510.56;1793375;80;20995;-72
2022/08/05 00:09:39;;;;;;;13.45;9.03;;;;;;;19.63;100.00;98503.99;1793199;80;21565;-72
2022/08/05 00:12:06;;;;;;;15.45;10.00;;;;;;;19.63;100.00;98505.36;1793591;80;21450;-72
2022/08/05 00:14:33;;;;;;;14.50;9.35;;;;;;;19.62;100.00;98496.84;1793650;80;21478;-72
2022/08/05 00:16:59;;;;;;;16.23;11.03;;;;;;;19.61;100.00;98481.51;1793515;80;21506;-72
2022/08/05 00:19:26;;;;;;;18.27;11.73;;;;;;;19.61;100.00;98471.91;1793418;80;20972;-73
2022/08/05 00:21:53;;;;;;;17.37;11.55;;;;;;;19.61;100.00;98459.02;1793456;80;20949;-72
2022/08/05 00:24:19;;;;;;;19.75;11.85;;;;;;;19.61;100.00;98459.58;1793583;80;20972;-72
2022/08/05 00:26:46;;;;;;;20.68;12.35;;;;;;;19.63;100.00;98457.38;1793663;80;20972;-73
2022/08/05 00:29:12;;;;;;;17.48;11.85;;;;;;;19.62;100.00;98452.45;1793461;80;21493;-73
2022/08/05 00:31:39;;;;;;;16.60;11.78;;;;;;;19.61;100.00;98448.61;1793451;80;21083;-73
2022/08/05 00:34:05;;;;;;;19.27;12.37;;;;;;;19.60;100.00;98440.09;1793111;80;21516;-72
2022/08/05 00:36:32;;;;;;;20.05;14.25;;;;;;;19.58;100.00;98418.42;1794770;80;20939;-73
2022/08/05 00:38:59;;;;;;;23.20;14.80;;;;;;;19.58;100.00;98414.88;1797421;80;20979;-73
2022/08/05 00:41:32;;;;;;;22.37;16.23;;;;;;;19.59;100.00;98416.53;1797623;79;20982;-73
2022/08/05 00:43:59;;;;;;;22.15;16.62;;;;;;;19.61;100.00;98408.30;1797771;80;21018;-73
2022/08/05 00:46:25;;;;;;;22.50;16.75;;;;;;;19.63;100.00;98392.40;1797658;80;20998;-72
2022/08/05 00:48:52;;;;;;;25.08;17.17;;;;;;;19.66;100.00;98390.50;1797583;79;21002;-73
2022/08/05 00:51:19;;;;;;;22.42;17.07;;;;;;;19.68;100.00;98380.63;1797703;80;21468;-73
2022/08/05 00:53:47;;;;;;;23.18;17.45;;;;;;;19.66;100.00;98374.05;1797624;80;20982;-73
2022/08/05 00:56:15;;;;;;;23.67;17.42;;;;;;;19.66;100.00;98363.08;1797324;80;21041;-72
2022/08/05 00:58:42;;;;;;;23.38;17.45;;;;;;;19.68;100.00;98354.59;1788397;79;21478;-73
2022/08/05 01:01:11;;;;;;;24.43;17.40;;;;;;;19.67;100.00;98343.33;1785583;80;21028;-73
2022/08/05 01:03:38;;;;;;;24.02;17.75;;;;;;;19.67;100.00;98339.22;1785715;80;21490;-73
2022/08/05 01:06:06;;;;;;;23.38;17.37;;;;;;;19.67;100.00;98326.35;1785879;80;21025;-73
2022/08/05 01:08:34;;;;;;;25.15;18.10;;;;;;;19.67;100.00;98316.76;1785303;80;21000;-73
2022/08/05 01:11:08;;;;;;;24.15;17.27;;;;;;;19.68;100.00;98310.16;1785379;80;21513;-73
2022/08/05 01:14:03;;;;;;;22.60;16.85;;;;;;;19.66;100.00;98304.13;1782563;80;21016;-73
2022/08/05 01:16:52;;;;;;;24.65;17.55;;;;;;;19.67;100.00;98302.20;1784444;80;21047;-73
2022/08/05 01:19:42;;;;;;;21.82;16.27;;;;;;;19.66;100.00;98286.87;1785127;80;21059;-73
2022/08/05 01:22:41;;;;;;;22.10;16.30;;;;;;;19.64;100.00;98273.98;1785326;80;21017;-73
2022/08/05 01:25:22;;;;;;;23.30;16.70;;;;;;;19.62;100.00;98270.14;1785423;80;21045;-73
2022/08/05 01:28:19;;;;;;;24.47;17.50;;;;;;;19.60;100.00;98261.38;1689791;85;21024;-73
2022/08/05 01:30:51;;;;;;;25.02;17.75;;;;;;;19.60;100.00;98255.05;1687862;85;21008;-72
2022/08/05 01:33:17;;;;;;;26.02;17.27;;;;;;;19.59;100.00;98253.42;1691257;85;21458;-73
2022/08/05 01:35:44;;;;;;;22.93;17.42;;;;;;;19.57;100.00;98248.20;1668185;85;21471;-73
2022/08/05 01:38:11;;;;;;;22.07;17.40;;;;;;;19.57;100.00;98240.54;1715591;84;20979;-73
2022/08/05 01:40:38;;;;;;;22.90;17.27;;;;;;;19.55;100.00;98225.73;1716593;84;21051;-73
2022/08/05 01:43:05;;;;;;;22.82;15.70;;;;;;;19.54;100.00;98218.59;1716682;84;21147;-73
2022/08/05 01:45:32;;;;;;;24.47;17.87;;;;;;;19.53;100.00;98215.59;1716431;84;21113;-73
2022/08/05 01:48:00;;;;;;;23.15;17.07;;;;;;;19.52;100.00;98207.09;1716670;83;20991;-73
2022/08/05 01:50:30;;;;;;;23.00;18.52;;;;;;;19.51;100.00;98196.68;1716669;83;20983;-73
2022/08/05 01:53:01;;;;;;;25.27;19.55;;;;;;;19.51;100.00;98173.38;1716568;84;21075;-73
2022/08/05 01:55:29;;;;;;;28.73;22.17;;;;;;;19.52;100.00;98166.78;1716571;83;21488;-73
2022/08/05 01:57:55;;;;;;;29.10;22.93;;;;;;;19.51;100.00;98159.67;1703993;84;21548;-73
2022/08/05 02:00:23;;;;;;;27.55;22.50;;;;;;;19.49;100.00;98151.44;1655115;87;21559;-73
2022/08/05 02:03:17;;;;;;;28.47;21.90;;;;;;;19.47;100.00;98140.75;1688850;85;21003;-73
2022/08/05 02:05:44;;;;;;;28.57;22.00;;;;;;;19.46;100.00;98132.27;1768186;80;21039;-73
2022/08/05 02:08:11;;;;;;;29.27;22.27;;;;;;;19.44;100.00;98117.18;1787755;80;21044;-73
2022/08/05 02:10:45;;;;;;;29.90;22.48;;;;;;;19.41;100.00;98108.16;1794076;80;21028;-73
2022/08/05 02:13:16;;;;;;;29.07;20.82;;;;;;;19.38;100.00;98101.30;1794242;80;21044;-73
2022/08/05 02:15:48;;;;;;;26.85;20.52;;;;;;;19.36;100.00;98085.69;1793671;80;21051;-73
2022/08/05 02:18:38;;;;;;;26.40;20.95;;;;;;;19.36;100.00;98080.20;1794698;80;21028;-73
2022/08/05 02:21:18;;;;;;;29.37;21.07;;;;;;;19.37;100.00;98067.31;1794472;80;21059;-73
2022/08/05 02:23:52;;;;;;;26.37;19.50;;;;;;;19.37;100.00;98050.87;1791556;80;20999;-73
2022/08/05 02:26:24;;;;;;;24.47;19.45;;;;;;;19.37;100.00;98031.70;1794384;80;21019;-73
2022/08/05 02:28:51;;;;;;;26.95;20.35;;;;;;;19.40;100.00;98022.92;1752165;82;21576;-73
2022/08/05 02:31:24;;;;;;;27.05;19.60;;;;;;;19.44;100.00;97992.48;1752168;82;21023;-73
2022/08/05 02:34:03;;;;;;;25.32;20.37;;;;;;;19.45;100.00;97990.84;1752356;82;21058;-73
2022/08/05 02:36:29;;;;;;;25.77;18.87;;;;;;;19.44;100.00;97987.00;1724590;83;20986;-73
2022/08/05 02:38:56;;;;;;;26.52;19.05;;;;;;;19.43;100.00;97978.53;1731082;83;21042;-73
2022/08/05 02:41:25;;;;;;;27.58;19.27;;;;;;;19.42;100.00;97967.28;1730759;83;21623;-73
2022/08/05 02:43:51;;;;;;;26.17;19.70;;;;;;;19.41;100.00;97955.52;1730807;83;21026;-73
2022/08/05 02:46:18;;;;;;;24.65;18.35;;;;;;;19.41;100.00;97933.59;1730986;83;21021;-73
2022/08/05 02:48:45;;;;;;;24.57;18.00;;;;;;;19.44;100.00;97925.34;1730842;82;21547;-73
2022/08/05 02:51:13;;;;;;;23.32;17.35;;;;;;;19.44;100.00;97919.86;1730862;83;21014;-73
2022/08/05 02:53:40;;;;;;;22.67;16.80;;;;;;;19.45;100.00;97909.19;1730924;83;20978;-73
2022/08/05 02:56:10;;;;;;;23.15;16.85;;;;;;;19.47;100.00;97886.42;1705655;83;21053;-73
2022/08/05 02:58:40;;;;;;;22.42;17.57;;;;;;;19.49;100.00;97864.47;1746607;80;20995;-73
2022/08/05 03:01:10;;;;;;;21.97;16.95;;;;;;;19.54;100.00;97634.78;1724883;83;22057;-73
2022/08/05 03:03:39;;;;;;;24.43;17.32;;;;;;;19.59;100.00;97609.26;1724820;83;21057;-73
2022/08/05 03:06:10;;;;;;;23.70;17.73;;;;;;;19.63;100.00;97582.89;1725048;83;21010;-73
2022/08/05 03:08:38;;;;;;;22.85;16.90;;;;;;;19.66;100.00;97567.24;1710524;83;21054;-73
2022/08/05 03:11:20;;;;;;;24.43;17.48;;;;;;;19.71;100.00;97541.95;1687021;85;21090;-72
2022/08/05 03:13:47;;;;;;;22.48;16.75;;;;;;;19.77;100.00;97537.26;1686599;85;21079;-73
2022/08/05 03:16:14;;;;;;;24.43;17.32;;;;;;;19.84;100.00;97519.89;1687125;85;21568;-72
2022/08/05 03:18:41;;;;;;;21.82;16.52;;;;;;;19.90;100.00;97506.40;1687414;85;21498;-73
2022/08/05 03:21:08;;;;;;;23.75;16.85;;;;;;;19.98;100.00;97485.72;1687363;85;20979;-73
2022/08/05 03:23:35;;;;;;;23.07;17.37;;;;;;;20.03;100.00;97471.94;1687329;85;21007;-72
2022/08/05 03:26:02;;;;;;;25.40;17.82;;;;;;;20.09;100.00;97457.03;1685664;85;21075;-72
2022/08/05 03:28:29;;;;;;;24.05;17.05;;;;;;;20.14;100.00;97446.55;1685019;85;21050;-73
2022/08/05 03:30:58;;;;;;;25.48;17.52;;;;;;;20.20;100.00;97441.80;1684839;85;21595;-73
2022/08/05 03:33:26;;;;;;;25.05;17.50;;;;;;;20.27;100.00;97429.89;1684973;85;21046;-72
2022/08/05 03:35:55;;;;;;;21.65;17.00;;;;;;;20.35;100.00;97414.13;1685076;85;21023;-73
2022/08/05 03:38:22;;;;;;;25.37;18.07;;;;;;;20.46;100.00;97396.38;1693444;85;21029;-73
2022/08/05 03:40:49;;;;;;;25.72;18.32;;;;;;;20.59;100.00;97373.38;1693237;85;21001;-73
2022/08/05 03:43:16;;;;;;;28.70;19.67;;;;;;;20.68;100.00;97360.62;1693285;85;21005;-73
2022/08/05 03:45:42;;;;;;;25.55;19.65;;;;;;;20.78;100.00;97345.90;1693219;85;21153;-73
2022/08/05 03:48:09;;;;;;;31.25;21.05;;;;;;;20.86;100.00;97334.22;1693326;85;21522;-72
2022/08/05 03:50:59;;;;;;;29.42;20.12;;;;;;;20.93;100.00;97315.41;1693036;85;21073;-72
2022/08/05 03:53:42;;;;;;;25.40;18.67;;;;;;;20.98;100.00;97297.99;1693381;85;21046;-72
2022/08/05 03:56:25;;;;;;;26.37;19.05;;;;;;;21.03;100.00;97283.62;1689948;85;21025;-73
2022/08/05 03:58:52;;;;;;;;;;;;;;;21.11;100.00;97277.15;1778435;80;20960;-73
2022/08/05 04:01:19;;;;;;;30.20;20.72;;;;;;;21.18;100.00;97271.48;1788477;80;20200;-72
2022/08/05 04:03:46;;;;;;;24.85;17.73;;;;;;;21.22;100.00;97276.59;1788533;80;20961;-73
2022/08/05 04:06:14;;;;;;;22.13;17.00;;;;;;;21.28;100.00;97273.75;1788289;80;21044;-73
2022/08/05 04:08:42;;;;;;;22.67;16.23;;;;;;;21.32;100.00;97272.83;1787447;80;21016;-73
2022/08/05 04:11:09;;;;;;;21.77;16.05;;;;;;;21.37;100.00;97263.64;1785781;80;21558;-73
2022/08/05 04:13:40;;;;;;;21.87;16.27;;;;;;;21.44;100.00;97268.15;1755525;80;20985;-73
2022/08/05 04:16:08;;;;;;;23.12;16.10;;;;;;;21.49;100.00;97264.52;1785923;80;21016;-73
2022/08/05 04:18:35;;;;;;;24.20;16.75;;;;;;;21.54;100.00;97265.20;1786035;80;20996;-73
2022/08/05 04:21:04;;;;;;;22.25;16.07;;;;;;;21.61;100.00;97270.28;1785951;80;21009;-73
2022/08/05 04:23:31;;;;;;;24.02;16.73;;;;;;;21.69;100.00;97268.17;1786099;80;20988;-73
2022/08/05 04:25:57;;;;;;;22.35;16.45;;;;;;;21.75;100.00;97268.86;1786082;80;21109;-73
2022/08/05 04:28:24;;;;;;;21.80;16.55;;;;;;;21.83;100.00;97276.92;1786049;80;20977;-73
2022/08/05 04:30:50;;;;;;;24.10;17.17;;;;;;;21.88;100.00;97279.55;1785928;80;21471;-73
2022/08/05 04:33:17;;;;;;;22.98;16.35;;;;;;;21.93;100.00;97280.23;1786192;80;21474;-73
2022/08/05 04:35:43;;;;;;;23.10;16.67;;;;;;;22.00;100.00;97288.05;1785985;80;20992;-73
2022/08/05 04:38:10;;;;;;;23.05;16.55;;;;;;;22.06;100.00;97288.73;1812422;79;20971;-73
2022/08/05 04:40:39;;;;;;;23.77;16.17;;;;;;;22.13;100.00;97298.73;1813581;79;21050;-73
2022/08/05 04:43:05;;;;;;;24.37;17.05;;;;;;;22.19;100.00;97315.38;1813806;79;20978;-73
2022/08/05 04:45:33;;;;;;;26.33;16.87;;;;;;;22.27;100.00;97339.41;1813379;79;21039;-73
2022/08/05 04:48:12;;;;;;;21.00;16.32;;;;;;;22.39;100.00;97376.02;1813946;79;21075;-73
2022/08/05 04:50:43;;;;;;;21.68;14.93;;;;;;;22.50;100.00;97442.08;1747684;82;21031;-73
2022/08/05 04:53:10;;;;;;;22.65;15.28;;;;;;;22.62;100.00;97562.69;1747818;82;21059;-74
2022/08/05 04:55:38;;;;;;;20.27;13.58;;;;;;;22.79;100.00;97636.95;1741305;82;21016;-74
2022/08/05 04:58:06;;;;;;;37.05;30.62;;;;;;;22.97;100.00;97707.65;1721144;83;21010;-74
2022/08/05 05:00:33;;;;;;;19.87;14.28;;;;;;;23.18;100.00;97763.17;1718861;83;21011;-73
2022/08/05 05:03:00;;;;;;;19.90;13.15;;;;;;;23.38;100.00;97806.01;1718845;83;20987;-74
2022/08/05 05:05:27;;;;;;;18.17;13.30;;;;;;;23.59;100.00;97853.26;1718834;83;21535;-73
2022/08/05 05:08:02;;;;;;;104.92;94.77;;;;;;;23.79;100.00;97898.07;1719014;83;21475;-74
2022/08/05 05:10:30;;;;;;;33.25;29.67;;;;;;;23.95;100.00;97942.73;1723749;83;21121;-73
2022/08/05 05:12:57;;;;;;;22.82;17.67;;;;;;;24.11;100.00;97998.41;1724129;83;21050;-73
2022/08/05 05:15:25;;;;;;;29.02;22.65;;;;;;;24.21;100.00;98065.27;1723868;83;21075;-73
2022/08/05 05:17:52;;;;;;;176.55;159.30;;;;;;;24.19;100.00;98127.46;1730469;82;21039;-74
2022/08/05 05:20:20;;;;;;;31.30;27.02;;;;;;;24.10;100.00;98188.63;1744423;82;21031;-75
2022/08/05 05:22:47;;;;;;;43.55;38.75;;;;;;;24.06;100.00;98230.67;1746228;82;20981;-73
2022/08/05 05:25:14;;;;;;;24.90;18.52;;;;;;;24.08;100.00;98259.33;1745383;82;21031;-74
2022/08/05 05:27:41;;;;;;;28.83;19.87;;;;;;;24.19;100.00;98275.99;1745591;82;20960;-74
2022/08/05 05:30:10;;;;;;;39.58;32.67;;;;;;;24.35;100.00;98296.44;1744740;82;21062;-74
2022/08/05 05:32:37;;;;;;;136.92;122.82;;;;;;;24.56;100.00;98333.63;1742544;82;20992;-74
2022/08/05 05:35:05;;;;;;;26.12;20.15;;;;;;;24.80;100.00;98383.19;1743908;82;21528;-75
2022/08/05 05:37:32;;;;;;;21.20;15.00;;;;;;;25.05;100.00;98421.72;1749629;82;20980;-80
2022/08/05 05:39:59;;;;;;;19.98;14.35;;;;;;;25.27;100.00;98472.19;1741312;82;21000;-81
2022/08/05 05:42:25;;;;;;;19.57;13.72;;;;;;;25.49;100.00;98498.59;1738651;82;21073;-77
2022/08/05 05:44:52;;;;;;;19.40;15.10;;;;;;;25.73;100.00;98531.61;1746399;82;21027;-79
2022/08/05 05:47:19;;;;;;;27.17;23.07;;;;;;;25.91;100.00;98563.65;1780228;79;20980;-80
2022/08/05 05:49:46;;;;;;;22.95;16.52;;;;;;;25.98;100.00;98610.34;1814699;79;21016;-82
2022/08/05 05:52:12;;;;;;;35.75;31.90;;;;;;;26.03;100.00;98638.75;1814752;79;21036;-79
2022/08/05 05:54:39;;;;;;;22.67;17.15;;;;;;;26.16;100.00;98659.84;1812673;79;21052;-78
2022/08/05 05:57:06;;;;;;;23.90;16.35;;;;;;;26.34;100.00;98680.48;1810347;79;21040;-80
2022/08/05 05:59:33;;;;;;;21.77;15.80;;;;;;;26.45;100.00;98724.05;1795322;80;21106;-81
2022/08/05 06:02:00;;;;;;;22.67;17.02;;;;;;;26.52;100.00;98749.43;1786089;79;21007;-79
2022/08/05 06:04:27;;;;;;;26.48;20.08;;;;;;;26.67;100.00;98751.66;1794376;80;21481;-81
2022/08/05 06:06:53;;;;;;;24.35;17.95;;;;;;;26.78;100.00;98768.33;1782965;80;21491;-79
2022/08/05 06:09:20;;;;;;;21.00;16.40;;;;;;;26.87;100.00;98787.26;1793875;80;20982;-79
2022/08/05 06:11:47;;;;;;;29.57;23.98;;;;;;;26.97;100.00;98804.80;1792957;80;21065;-78
2022/08/05 06:14:14;;;;;;;26.55;21.82;;;;;;;27.14;100.00;98819.44;1764394;81;21037;-79
2022/08/05 06:16:43;;;;;;;27.60;19.62;;;;;;;27.34;100.00;98827.90;1773060;80;20986;-82
2022/08/05 06:19:10;;;;;;;28.95;22.35;;;;;;;27.52;100.00;98834.46;1770311;80;21046;-82
2022/08/05 06:21:38;;;;;;;27.82;21.73;;;;;;;27.63;100.00;98867.20;1794063;80;21614;-82
2022/08/05 06:24:06;;;;;;;24.50;21.15;;;;;;;27.74;100.00;98874.73;1793777;80;21535;-83
2022/08/05 06:26:34;;;;;;;25.68;21.05;;;;;;;27.89;100.00;98890.78;1795131;80;21088;-83
2022/08/05 06:29:00;;;;;;;34.65;23.00;;;;;;;28.05;100.00;98909.32;1794931;80;21025;-82
2022/08/05 06:31:27;;;;;;;29.82;21.40;;;;;;;28.21;100.00;98916.17;1796388;80;21045;-81
2022/08/05 06:33:54;;;;;;;25.72;19.85;;;;;;;28.39;100.00;98938.77;1797453;80;21499;-82
2022/08/05 06:36:20;;;;;;;25.45;19.77;;;;;;;28.52;100.00;98961.27;1797416;80;20978;-81
2022/08/05 06:38:53;;;;;;;25.70;19.92;;;;;;;28.61;100.00;98966.91;1795644;80;21028;-81
2022/08/05 06:41:20;;;;;;;26.57;21.85;;;;;;;28.69;100.00;98980.06;1796634;80;20995;-81
2022/08/05 06:43:47;;;;;;;25.97;19.95;;;;;;;28.72;100.00;98988.59;1796580;80;21018;-81
2022/08/05 06:46:14;;;;;;;25.97;19.42;;;;;;;28.84;100.00;98989.96;1796658;80;21030;-80
2022/08/05 06:48:40;;;;;;;25.30;18.95;;;;;;;29.03;100.00;98992.53;1796885;80;20986;-81
2022/08/05 06:51:07;;;;;;;23.15;16.77;;;;;;;29.21;100.00;99004.02;1796152;80;21041;-80
2022/08/05 06:53:35;;;;;;;21.27;16.27;;;;;;;29.29;100.00;99023.31;1796109;80;21061;-80
2022/08/05 06:56:04;;;;;;;21.77;15.58;;;;;;;29.29;100.00;99042.22;1796352;80;21428;-79
2022/08/05 06:58:31;;;;;;;25.60;18.00;;;;;;;29.28;100.00;99052.28;1791440;80;21491;-78
2022/08/05 07:00:59;;;;;;;18.52;13.38;;;;;;;29.18;100.00;99079.83;1789126;80;21008;-80
2022/08/05 07:03:28;;;;;;;19.45;13.48;;;;;;;29.04;100.00;99090.16;1788896;80;21031;-79
2022/08/05 07:05:55;;;;;;;18.48;13.30;;;;;;;28.95;100.00;99104.85;1788745;80;21075;-79
2022/08/05 07:10:52;;;;;;;20.02;15.08;;;;;;;28.90;100.00;99111.11;1642380;86;21603;-81
2022/08/05 07:18:46;;;;;;;18.45;12.88;;;;;;;28.51;100.00;99116.16;1598491;90;21096;-77
2022/08/05 07:21:14;;;;;;;16.23;11.45;;;;;;;28.38;100.00;99113.67;1598608;90;21090;-76
2022/08/05 07:23:42;;;;;;;17.87;11.22;;;;;;;28.28;100.00;99118.59;1598088;90;21561;-78
2022/08/05 07:26:08;;;;;;;16.70;11.63;;;;;;;28.21;100.00;99128.20;1598186;90;21569;-78
2022/08/05 07:28:35;;;;;;;18.70;11.83;;;;;;;28.23;100.00;99115.38;1598360;90;21601;-78
2022/08/05 07:31:02;;;;;;;18.00;12.47;;;;;;;28.32;100.00;99116.29;1599092;90;21602;-79
2022/08/05 07:33:29;;;;;;;18.30;13.30;;;;;;;28.41;100.00;99118.58;1599114;90;21188;-79
2022/08/05 07:35:55;;;;;;;20.65;13.22;;;;;;;28.51;100.00;99123.67;1599089;90;21139;-80
2022/08/05 07:38:22;;;;;;;19.25;12.75;;;;;;;28.65;100.00;99118.93;1597618;90;21122;-78
2022/08/05 07:40:49;;;;;;;19.32;12.23;;;;;;;28.98;100.00;99110.34;1597415;90;21055;-77
2022/08/05 07:43:16;;;;;;;19.23;13.20;;;;;;;29.43;100.00;99107.56;1597700;90;21059;-78
2022/08/05 07:45:43;;;;;;;16.00;9.78;;;;;;;29.93;100.00;99120.42;1597671;90;21077;-78
2022/08/05 07:48:10;;;;;;;13.25;9.80;;;;;;;30.35;100.00;99135.39;1597387;90;21115;-78
2022/08/05 07:50:37;;;;;;;14.55;10.03;;;;;;;30.66;100.00;99159.80;1597154;90;21585;-81
2022/08/05 07:53:04;;;;;;;15.05;9.35;;;;;;;30.85;100.00;99190.20;1597675;90;21071;-80
2022/08/05 07:55:31;;;;;;;14.93;9.85;;;;;;;30.91;100.00;99218.76;1628356;86;21058;-79
2022/08/05 07:57:58;;;;;;;13.45;9.35;;;;;;;31.01;100.00;99224.64;1648728;86;21126;-77
2022/08/05 08:00:25;;;;;;;14.63;9.48;;;;;;;31.14;100.00;99245.98;1639551;87;21081;-78
2022/08/05 08:02:52;;;;;;;11.63;7.85;;;;;;;31.21;100.00;99257.48;1638255;87;21652;-79
2022/08/05 08:05:18;;;;;;;16.25;10.05;;;;;;;31.33;100.00;99272.77;1645072;86;21531;-78
2022/08/05 08:07:47;;;;;;;15.10;9.83;;;;;;;31.42;100.00;99287.55;1655804;87;21066;-76
2022/08/05 08:10:14;;;;;;;17.40;10.72;;;;;;;31.28;100.00;99300.28;1645735;86;21095;-78
2022/08/05 08:12:41;;;;;;;15.93;9.80;;;;;;;31.01;100.00;99321.75;1659751;86;21093;-78
2022/08/05 08:15:09;;;;;;;14.15;10.00;;;;;;;30.72;100.00;99315.89;1632574;88;21039;-77
2022/08/05 08:17:36;;;;;;;18.27;11.78;;;;;;;30.53;100.00;99307.77;1629842;88;21046;-77
2022/08/05 08:20:04;;;;;;;18.02;12.82;;;;;;;30.41;100.00;99304.22;1695067;80;21053;-75
2022/08/05 08:22:31;;;;;;;18.10;13.08;;;;;;;30.44;100.00;99291.03;1785484;80;20999;-77
2022/08/05 08:24:59;;;;;;;15.95;11.80;;;;;;;30.62;100.00;99301.68;1785422;80;21010;-76
2022/08/05 08:27:26;;;;;;;17.70;10.93;;;;;;;30.94;100.00;99304.67;1784585;80;21002;-77
2022/08/05 08:29:52;;;;;;;16.87;11.35;;;;;;;31.39;100.00;99311.39;1784662;80;21033;-79
2022/08/05 08:32:20;;;;;;;16.27;9.65;;;;;;;31.72;100.00;99357.01;1785343;80;21006;-76
2022/08/05 08:34:47;;;;;;;16.05;10.05;;;;;;;31.83;100.00;99379.05;1784847;80;21002;-77
2022/08/05 08:37:14;;;;;;;13.53;9.08;;;;;;;31.99;100.00;99392.75;1755780;80;21458;-77
2022/08/05 08:39:41;;;;;;;14.18;10.00;;;;;;;32.12;100.00;99533.02;1766016;81;21003;-76
2022/08/05 08:42:08;;;;;;;13.22;9.95;;;;;;;32.08;100.00;99582.91;1766332;81;21004;-77
2022/08/05 08:44:36;;;;;;;17.48;10.55;;;;;;;31.92;100.00;99577.75;1766831;81;21107;-78
2022/08/05 08:47:03;;;;;;;16.65;11.03;;;;;;;31.61;100.00;99584.82;1766484;81;21498;-78
2022/08/05 08:49:33;;;;;;;15.38;10.53;;;;;;;31.27;100.00;99590.48;1766737;81;21023;-77
2022/08/05 08:52:15;;;;;;;15.90;10.75;;;;;;;30.92;100.00;99576.30;1781748;79;21052;-78
2022/08/05 08:54:44;;;;;;;15.78;9.93;;;;;;;30.70;100.00;99572.09;1695670;83;21106;-76
2022/08/05 08:57:11;;;;;;;17.70;11.15;;;;;;;30.40;100.00;99548.83;1694021;85;21071;-77
2022/08/05 08:59:37;;;;;;;16.77;10.95;;;;;;;30.27;100.00;99517.58;1695655;85;21055;-80
2022/08/05 09:02:05;;;;;;;16.67;10.85;;;;;;;30.26;100.00;99493.06;1694848;85;21572;-78
2022/08/05 09:04:38;;;;;;;16.52;11.50;;;;;;;30.18;100.00;99510.53;1694176;85;21023;-77
2022/08/05 09:07:06;;;;;;;16.90;10.75;;;;;;;30.08;100.00;99499.62;1694086;85;21073;-77
2022/08/05 09:09:34;;;;;;;17.35;10.88;;;;;;;30.08;100.00;99500.47;1694975;84;21603;-75
2022/08/05 09:12:04;;;;;;;15.45;10.72;;;;;;;30.31;100.00;99475.95;1703650;84;21030;-77
2022/08/05 09:14:31;;;;;;;14.58;10.40;;;;;;;30.49;100.00;99491.69;1658491;86;21071;-76
2022/08/05 09:17:01;;;;;;;15.32;10.48;;;;;;;30.48;100.00;99503.42;1615306;89;21563;-75
2022/08/05 09:19:27;;;;;;;16.35;10.23;;;;;;;30.37;100.00;99520.74;1576894;91;21101;-74
2022/08/05 09:21:56;;;;;;;15.18;10.65;;;;;;;30.26;100.00;99518.16;1587627;90;21137;-75
2022/08/05 09:24:22;;;;;;;17.73;10.78;;;;;;;30.30;100.00;99507.20;1588163;90;21069;-74
2022/08/05 09:26:51;;;;;;;19.15;10.03;;;;;;;30.60;100.00;99494.48;1587828;90;21114;-75
2022/08/05 09:29:18;;;;;;;13.88;9.80;;;;;;;31.11;100.00;99486.76;1587881;90;21618;-76
2022/08/05 09:32:04;;;;;;;14.85;9.98;;;;;;;31.57;100.00;99519.54;1603614;89;21077;-76
2022/08/05 09:34:53;;;;;;;15.38;10.08;;;;;;;31.98;100.00;99540.70;1552640;92;21021;-75
2022/08/05 09:37:23;;;;;;;18.02;10.65;;;;;;;32.39;100.00;99570.20;1520380;93;21090;-76
2022/08/05 09:39:52;;;;;;;14.58;9.90;;;;;;;32.70;100.00;99576.22;1523492;94;21150;-75
2022/08/05 09:42:22;;;;;;;18.32;12.93;;;;;;;32.78;100.00;99587.19;1510443;95;21620;-76
2022/08/05 09:44:51;;;;;;;17.50;11.35;;;;;;;32.49;100.00;99611.01;1564406;92;21154;-76
2022/08/05 09:47:21;;;;;;;16.20;10.95;;;;;;;32.24;100.00;99597.25;1564573;92;21137;-75
2022/08/05 09:49:55;;;;;;;13.88;9.90;;;;;;;32.30;100.00;99589.78;1569949;90;21054;-74
2022/08/05 09:52:26;;;;;;;15.35;10.05;;;;;;;32.61;100.00;99581.83;1586650;90;21078;-74
2022/08/05 09:55:03;;;;;;;15.88;10.10;;;;;;;32.99;100.00;99595.69;1586701;90;21070;-76
2022/08/05 09:57:42;;;;;;;18.48;10.58;;;;;;;33.26;100.00;99603.74;1534899;93;21118;-75
2022/08/05 10:00:14;;;;;;;15.72;10.50;;;;;;;33.50;100.00;99596.73;1537299;93;21113;-75
2022/08/05 10:02:44;;;;;;;15.43;10.63;;;;;;;33.78;100.00;99592.11;1537415;92;21145;-75
2022/08/05 10:05:18;;;;;;;17.17;10.65;;;;;;;33.93;100.00;99602.75;1537088;92;21105;-75
2022/08/05 10:07:53;;;;;;;14.93;10.38;;;;;;;33.95;100.00;99599.62;1537093;93;21173;-74
2022/08/05 10:10:27;;;;;;;15.80;10.63;;;;;;;33.83;100.00;99610.14;1535652;93;21551;-74
2022/08/05 10:12:56;;;;;;;15.48;10.80;;;;;;;33.65;100.00;99610.78;1552529;92;21071;-76
2022/08/05 10:15:32;;;;;;;14.78;10.45;;;;;;;33.57;100.00;99615.83;1560708;90;21051;-73
2022/08/05 10:18:15;;;;;;;13.88;10.80;;;;;;;33.45;100.00;99612.35;1631202;86;21657;-74
2022/08/05 10:20:47;;;;;;;14.03;10.70;;;;;;;33.21;100.00;99605.31;1641418;87;21066;-73
2022/08/05 10:23:20;;;;;;;15.38;11.20;;;;;;;32.76;100.00;99613.26;1662143;86;21557;-74
2022/08/05 10:25:47;;;;;;;17.15;12.18;;;;;;;32.33;100.00;99613.46;1667635;86;21071;-77
2022/08/05 10:28:15;;;;;;;22.52;10.10;;;;;;;31.95;100.00;99623.81;1667799;86;21090;-76
2022/08/05 10:30:42;;;;;;;14.70;8.23;;;;;;;31.32;100.00;99627.20;1667819;86;21103;-75
2022/08/05 10:33:09;;;;;;;16.65;7.70;;;;;;;30.26;100.00;99657.58;1667480;86;21030;-77
2022/08/05 10:35:36;;;;;;;13.80;7.10;;;;;;;29.21;100.00;99655.38;1667942;86;21131;-75
2022/08/05 10:38:04;;;;;;;14.63;7.08;;;;;;;28.26;100.00;99626.20;1689403;85;21026;-73
2022/08/05 10:40:35;;;;;;;10.55;6.25;;;;;;;27.44;100.00;99599.37;1692040;85;21061;-74
2022/08/05 10:43:40;;;;;;;10.75;6.20;;;;;;;26.73;100.00;99564.22;1691970;85;21053;-73
2022/08/05 10:46:09;;;;;;;11.40;5.30;;;;;;;26.24;100.00;99537.38;1641928;87;21584;-74
2022/08/05 10:48:42;;;;;;;6.45;4.10;;;;;;;25.78;100.00;99535.66;1641948;87;21069;-74
2022/08/05 10:51:16;;;;;;;6.20;4.22;;;;;;;25.35;100.00;99565.16;1642247;87;21045;-76
2022/08/05 10:53:57;;;;;;;4.35;3.70;;;;;;;24.99;100.00;99575.45;1632205;87;21047;-77
2022/08/05 10:56:30;;;;;;;5.92;4.00;;;;;;;24.75;100.00;99571.84;1617221;89;21067;-76
2022/08/05 10:59:04;;;;;;;8.10;4.62;;;;;;;24.58;100.00;99571.31;1603246;89;21539;-76
2022/08/05 11:01:43;;;;;;;6.90;5.20;;;;;;;24.43;100.00;99569.31;1601296;89;21064;-78
2022/08/05 11:04:22;;;;;;;7.15;5.10;;;;;;;24.29;100.00;99549.66;1601389;90;21119;-74
2022/08/05 11:07:03;;;;;;;10.40;6.47;;;;;;;24.15;100.00;99538.34;1601514;90;21156;-76
2022/08/05 11:09:48;;;;;;;8.85;5.87;;;;;;;23.91;100.00;99507.63;1601280;90;21159;-75
2022/08/05 11:12:41;;;;;;;10.88;6.40;;;;;;;23.64;100.00;99483.78;1601105;90;21758;-73
2022/08/05 11:15:18;;;;;;;10.32;6.22;;;;;;;23.47;100.00;99452.81;1601383;90;21037;-73
2022/08/05 11:17:49;;;;;;;10.38;6.30;;;;;;;23.31;100.00;99427.11;1601331;90;21056;-75
2022/08/05 11:20:38;;;;;;;11.68;6.47;;;;;;;23.13;100.00;99403.05;1601412;90;21093;-74
2022/08/05 11:23:33;;;;;;;10.15;6.30;;;;;;;22.98;100.00;99380.88;1685827;84;21102;-75
2022/08/05 11:26:10;;;;;;;12.55;7.40;;;;;;;22.84;100.00;99368.69;1706105;84;21023;-75
2022/08/05 11:28:43;;;;;;;13.68;6.75;;;;;;;22.81;100.00;99345.83;1706062;84;21528;-76
2022/08/05 11:31:15;;;;;;;12.68;6.40;;;;;;;22.80;100.00;99326.23;1706098;84;21151;-74
2022/08/05 11:33:51;;;;;;;14.05;6.37;;;;;;;22.82;100.00;99326.23;1706024;84;21019;-74